Time;durP1;ratioP1;P1;durP2;ratioP2;P2;SDS_P1;SDS_P2;PMS_P1;PMS_P2;Temp;Humidity;BMP_temperature;BMP_pressure;BME280_temperature;BME280_humidity;BME280_pressure;Samples;Min_cycle;Max_cycle;Signal;HPM_P1;HPM_P2
2022/01/17 00:01:32;;;;;;;20.25;2.92;;;5.80;99.90;;;;;;5132725;27;20466;-81
2022/01/17 00:03:58;;;;;;;24.25;4.18;;;5.80;99.90;;;;;;5118548;27;20043;-83
2022/01/17 00:06:24;;;;;;;25.63;4.35;;;5.80;99.90;;;;;;5126952;27;20437;-83
2022/01/17 00:08:50;;;;;;;24.75;4.22;;;5.80;99.90;;;;;;5116210;27;20043;-83
2022/01/17 00:11:18;;;;;;;16.15;3.10;;;5.80;99.90;;;;;;5127704;27;20509;-83
2022/01/17 00:13:45;;;;;;;25.98;4.05;;;5.70;99.90;;;;;;5103877;27;20517;-83
2022/01/17 00:21:05;;;;;;;25.63;3.25;;;5.70;99.90;;;;;;5123693;27;20050;-83
2022/01/17 00:23:31;;;;;;;23.45;3.55;;;5.60;99.90;;;;;;5138337;27;20050;-83
2022/01/17 00:25:57;;;;;;;29.17;3.90;;;5.60;99.90;;;;;;5103767;27;20497;-83
2022/01/17 00:28:23;;;;;;;25.85;3.55;;;5.60;99.90;;;;;;5097038;27;20179;-83
2022/01/17 00:30:49;;;;;;;22.55;3.58;;;5.50;99.90;;;;;;5120362;27;20182;-83
2022/01/17 00:33:15;;;;;;;28.95;4.55;;;5.50;99.90;;;;;;5134765;27;20067;-83
2022/01/17 00:35:41;;;;;;;26.15;3.92;;;5.50;99.90;;;;;;5135455;27;20043;-83
2022/01/17 00:38:07;;;;;;;20.83;3.38;;;5.50;99.90;;;;;;5114401;27;20122;-82
2022/01/17 00:40:33;;;;;;;30.05;3.50;;;5.50;99.90;;;;;;5116772;27;20050;-83
2022/01/17 00:42:58;;;;;;;29.85;4.38;;;5.50;99.90;;;;;;5087194;27;20513;-83
2022/01/17 00:45:27;;;;;;;26.30;3.50;;;5.50;99.90;;;;;;5083561;27;20050;-82
2022/01/17 00:47:57;;;;;;;20.98;3.83;;;5.60;99.90;;;;;;5111698;27;20031;-83
2022/01/17 00:50:25;;;;;;;23.92;3.60;;;5.60;99.90;;;;;;5136598;27;20592;-84
2022/01/17 00:52:51;;;;;;;26.55;4.25;;;5.60;99.90;;;;;;5113209;27;20399;-83
2022/01/17 00:55:17;;;;;;;30.63;4.05;;;5.60;99.90;;;;;;5101603;27;20138;-83
2022/01/17 00:57:43;;;;;;;22.77;3.55;;;5.60;99.90;;;;;;5113148;27;20053;-83
2022/01/17 01:00:10;;;;;;;26.42;3.88;;;5.60;99.90;;;;;;5094077;27;20133;-83
2022/01/17 01:02:37;;;;;;;31.38;3.80;;;5.50;99.90;;;;;;5099734;27;20043;-83
2022/01/17 01:05:04;;;;;;;21.50;3.38;;;5.40;99.90;;;;;;5113221;27;20485;-82
2022/01/17 01:07:30;;;;;;;18.23;3.50;;;5.50;99.90;;;;;;5130611;27;20154;-83
2022/01/17 01:10:06;;;;;;;31.67;4.72;;;5.40;99.90;;;;;;5116540;27;20544;-82
2022/01/17 01:12:32;;;;;;;31.13;4.20;;;5.40;99.90;;;;;;5112107;27;20054;-82
2022/01/17 01:14:58;;;;;;;19.63;2.88;;;5.40;99.90;;;;;;5107626;27;20054;-83
2022/01/17 01:17:36;;;;;;;23.50;4.22;;;5.30;99.90;;;;;;5118970;27;20042;-83
2022/01/17 01:20:53;;;;;;;26.30;4.00;;;5.30;99.90;;;;;;5119126;27;20487;-83
2022/01/17 01:28:20;;;;;;;28.38;4.15;;;5.20;99.90;;;;;;5122689;27;20085;-82
2022/01/17 01:30:50;;;;;;;27.35;4.10;;;5.20;99.90;;;;;;5097750;27;20066;-82
2022/01/17 01:33:22;;;;;;;20.67;3.55;;;5.20;99.90;;;;;;5080480;27;20082;-81
2022/01/17 01:35:50;;;;;;;30.30;3.35;;;5.20;99.90;;;;;;5095004;27;20095;-81
2022/01/17 01:38:16;;;;;;;21.25;3.50;;;5.20;99.90;;;;;;5119898;27;20055;-80
2022/01/17 01:40:42;;;;;;;30.77;4.43;;;5.20;99.90;;;;;;5115145;27;20054;-81
2022/01/17 01:43:08;;;;;;;26.73;4.75;;;5.20;99.90;;;;;;5095787;27;20054;-81
2022/01/17 01:45:33;;;;;;;25.88;3.72;;;5.30;99.90;;;;;;5110738;27;20080;-81
2022/01/17 01:47:59;;;;;;;27.05;4.05;;;5.30;99.90;;;;;;5083803;27;20047;-82
2022/01/17 01:50:25;;;;;;;29.63;3.58;;;5.30;99.90;;;;;;5101866;27;20042;-83
2022/01/17 01:52:50;;;;;;;29.65;4.03;;;5.30;99.90;;;;;;5105042;27;20074;-81
2022/01/17 01:55:21;;;;;;;28.02;3.63;;;5.30;99.90;;;;;;5108758;28;20059;-81
2022/01/17 01:57:47;;;;;;;21.10;3.40;;;5.30;99.90;;;;;;5102289;27;20106;-82
2022/01/17 02:00:14;;;;;;;23.75;3.80;;;5.30;99.90;;;;;;5081310;27;20059;-81
2022/01/17 02:02:40;;;;;;;30.10;3.83;;;5.30;99.90;;;;;;5108417;27;20192;-84
2022/01/17 02:05:07;;;;;;;25.92;3.80;;;5.30;99.90;;;;;;5119514;27;20402;-82
2022/01/17 02:07:32;;;;;;;22.40;3.65;;;5.20;99.90;;;;;;5102217;27;20031;-81
2022/01/17 02:09:58;;;;;;;27.05;3.33;;;5.20;99.90;;;;;;5106422;27;20130;-81
2022/01/17 02:12:25;;;;;;;30.40;4.82;;;5.30;99.90;;;;;;5083515;27;20054;-81
2022/01/17 02:14:53;;;;;;;26.83;3.20;;;5.30;99.90;;;;;;5106957;28;20165;-83
2022/01/17 02:17:20;;;;;;;31.60;4.13;;;5.30;99.90;;;;;;5065868;27;20129;-83
2022/01/17 02:20:05;;;;;;;25.83;3.33;;;5.30;99.90;;;;;;5082339;28;20050;-83
2022/01/17 02:22:31;;;;;;;32.10;3.88;;;5.40;99.90;;;;;;5067937;28;20044;-86
2022/01/17 02:24:57;;;;;;;26.25;3.15;;;5.40;99.90;;;;;;5116052;27;20035;-83
2022/01/17 02:27:22;;;;;;;25.30;3.42;;;5.40;99.90;;;;;;5112657;28;20047;-82
2022/01/17 02:29:48;;;;;;;23.75;5.03;;;5.50;99.90;;;;;;5129476;27;20096;-83
2022/01/17 02:32:14;;;;;;;26.85;3.63;;;5.50;99.90;;;;;;5107245;28;20049;-82
2022/01/17 02:34:41;;;;;;;22.42;3.08;;;5.60;99.90;;;;;;5098980;27;20089;-82
2022/01/17 02:37:08;;;;;;;23.92;3.85;;;5.60;99.90;;;;;;5105861;28;20126;-82
2022/01/17 02:39:34;;;;;;;29.38;3.58;;;5.60;99.90;;;;;;5111630;28;20082;-81
2022/01/17 02:42:05;;;;;;;26.55;3.67;;;5.60;99.90;;;;;;5094529;28;20078;-81
2022/01/17 02:44:31;;;;;;;25.17;4.32;;;5.70;99.90;;;;;;5131070;27;20043;-81
2022/01/17 02:46:58;;;;;;;20.60;4.03;;;5.60;99.90;;;;;;5117508;27;20036;-81
2022/01/17 02:49:24;;;;;;;24.20;3.63;;;5.70;99.90;;;;;;5085693;27;20103;-81
2022/01/17 02:51:51;;;;;;;25.80;3.75;;;5.60;99.90;;;;;;5088927;28;20047;-82
2022/01/17 02:54:18;;;;;;;21.30;3.30;;;5.70;99.90;;;;;;5108142;27;20076;-81
2022/01/17 02:56:43;;;;;;;17.15;3.13;;;5.70;99.90;;;;;;5108221;27;20134;-81
2022/01/17 02:59:09;;;;;;;22.85;3.45;;;5.70;99.90;;;;;;5068118;28;20120;-81
2022/01/17 03:01:35;;;;;;;26.90;3.55;;;5.70;99.90;;;;;;5101924;28;20043;-81
2022/01/17 03:04:01;;;;;;;25.45;3.58;;;5.80;99.90;;;;;;5101779;28;20074;-82
2022/01/17 03:06:28;;;;;;;30.55;4.13;;;5.80;99.90;;;;;;5118159;28;20035;-82
2022/01/17 03:08:54;;;;;;;19.27;2.72;;;5.90;99.90;;;;;;5067888;28;20082;-81
2022/01/17 03:11:22;;;;;;;21.75;3.55;;;5.80;99.90;;;;;;5111429;28;20035;-82
2022/01/17 03:13:50;;;;;;;27.05;3.97;;;5.80;99.90;;;;;;5121927;27;20050;-84
2022/01/17 03:16:18;;;;;;;25.42;3.75;;;5.90;99.90;;;;;;5105430;27;20043;-82
2022/01/17 03:18:51;;;;;;;21.33;3.50;;;5.80;99.90;;;;;;5100505;27;20184;-82
2022/01/17 03:21:19;;;;;;;23.08;3.40;;;5.80;99.90;;;;;;5103905;27;20043;-82
2022/01/17 03:23:48;;;;;;;31.45;3.83;;;5.70;99.90;;;;;;5087754;28;20048;-81
2022/01/17 03:26:14;;;;;;;21.10;3.17;;;5.80;99.90;;;;;;5107499;28;20048;-81
2022/01/17 03:28:40;;;;;;;20.48;3.67;;;5.80;99.90;;;;;;5118171;28;20042;-81
2022/01/17 03:31:07;;;;;;;18.67;3.13;;;5.80;99.90;;;;;;5087035;28;20052;-81
2022/01/17 03:33:33;;;;;;;23.70;4.30;;;5.80;99.90;;;;;;5118807;28;20046;-81
2022/01/17 03:35:59;;;;;;;23.55;3.60;;;5.80;99.90;;;;;;5083928;28;20142;-81
2022/01/17 03:38:29;;;;;;;19.40;3.60;;;5.80;99.90;;;;;;5067832;28;20047;-80
2022/01/17 03:40:55;;;;;;;24.02;3.22;;;5.90;99.90;;;;;;5112830;27;20571;-81
2022/01/17 03:43:22;;;;;;;21.58;3.65;;;5.90;99.90;;;;;;5090799;27;20086;-81
2022/01/17 03:45:49;;;;;;;25.42;4.13;;;5.90;99.90;;;;;;5122064;27;20082;-81
2022/01/17 03:48:16;;;;;;;19.55;2.95;;;5.90;99.90;;;;;;5103838;27;20041;-81
2022/01/17 03:50:42;;;;;;;27.45;3.20;;;5.90;99.90;;;;;;5096741;27;20054;-81
2022/01/17 03:53:08;;;;;;;24.42;3.20;;;5.90;99.90;;;;;;5093540;27;20036;-82
2022/01/17 03:55:35;;;;;;;26.73;4.53;;;5.90;99.90;;;;;;5103000;28;20083;-82
2022/01/17 03:58:03;;;;;;;27.38;4.10;;;5.90;99.90;;;;;;5103221;27;20081;-85
2022/01/17 04:00:37;;;;;;;33.30;3.97;;;5.80;99.90;;;;;;5102467;27;20054;-82
2022/01/17 04:03:03;;;;;;;23.23;4.95;;;5.80;99.90;;;;;;5115335;28;20044;-81
2022/01/17 04:05:29;;;;;;;28.38;4.25;;;5.80;99.90;;;;;;5100998;27;20497;-83
2022/01/17 04:07:54;;;;;;;23.35;3.47;;;5.80;99.90;;;;;;5101189;27;20043;-83
2022/01/17 04:10:20;;;;;;;32.75;3.90;;;5.80;99.90;;;;;;5101291;27;20051;-81
2022/01/17 04:12:46;;;;;;;26.60;4.30;;;5.80;99.90;;;;;;5086648;28;20453;-81
2022/01/17 04:15:12;;;;;;;30.85;4.40;;;5.90;99.90;;;;;;5094026;28;20452;-82
2022/01/17 04:17:40;;;;;;;32.60;4.88;;;5.90;99.90;;;;;;5083079;27;20518;-83
2022/01/17 04:20:09;;;;;;;28.23;3.80;;;6.00;99.90;;;;;;5117846;27;20047;-82
2022/01/17 04:22:42;;;;;;;28.17;4.70;;;6.00;99.90;;;;;;5080294;28;20048;-82
2022/01/17 04:25:09;;;;;;;23.80;3.70;;;6.10;99.90;;;;;;5100815;27;20059;-82
2022/01/17 04:27:35;;;;;;;27.80;4.20;;;6.10;99.90;;;;;;5100634;27;20480;-83
2022/01/17 04:30:04;;;;;;;25.17;3.85;;;6.10;99.90;;;;;;5099645;27;20509;-82
2022/01/17 04:32:29;;;;;;;21.15;3.40;;;6.10;99.90;;;;;;5100699;27;20121;-81
2022/01/17 04:34:55;;;;;;;32.17;4.53;;;6.20;99.90;;;;;;5080498;27;20090;-83
2022/01/17 04:37:21;;;;;;;25.33;4.15;;;6.20;99.90;;;;;;5083302;27;20043;-83
2022/01/17 04:39:47;;;;;;;24.65;3.92;;;6.20;99.90;;;;;;5117802;27;20039;-83
2022/01/17 04:42:13;;;;;;;28.35;5.60;;;6.20;99.90;;;;;;5063412;28;20067;-84
2022/01/17 04:45:16;;;;;;;35.47;5.95;;;6.20;99.90;;;;;;5089490;27;20499;-84
2022/01/17 04:47:32;;;;;;;28.70;4.80;;;6.10;99.90;;;;;;5113289;27;20043;-82
2022/01/17 04:49:58;;;;;;;27.45;4.60;;;6.10;99.90;;;;;;5100654;27;20510;-80
2022/01/17 04:52:26;;;;;;;31.83;5.25;;;6.10;99.90;;;;;;5100195;27;20045;-81
2022/01/17 04:54:54;;;;;;;30.75;4.60;;;6.10;99.90;;;;;;5098632;27;20480;-81
2022/01/17 04:57:21;;;;;;;30.38;4.63;;;6.20;99.90;;;;;;5094984;27;20054;-83
2022/01/17 04:59:48;;;;;;;31.52;4.70;;;6.10;99.90;;;;;;5104338;27;20068;-82
2022/01/17 05:02:15;;;;;;;21.25;4.38;;;6.20;99.90;;;;;;5122543;27;20126;-81
2022/01/17 05:04:41;;;;;;;32.92;5.18;;;6.20;99.90;;;;;;5116404;27;20046;-82
2022/01/17 05:07:07;;;;;;;30.45;5.05;;;6.20;99.90;;;;;;5102660;28;20042;-82
2022/01/17 05:09:33;;;;;;;30.30;5.25;;;6.20;99.90;;;;;;5093982;27;20398;-81
2022/01/17 05:11:59;;;;;;;34.22;5.38;;;6.30;99.90;;;;;;5099674;27;20058;-82
2022/01/17 05:14:26;;;;;;;31.75;5.25;;;6.20;99.90;;;;;;5073338;27;20031;-81
2022/01/17 05:16:59;;;;;;;30.38;4.80;;;6.20;99.90;;;;;;5116688;27;20113;-80
2022/01/17 05:22:11;;;;;;;27.83;4.85;;;6.20;99.90;;;;;;5099577;27;20058;-83
2022/01/17 05:24:36;;;;;;;33.08;5.45;;;6.20;99.90;;;;;;5077126;27;20040;-83
2022/01/17 05:27:03;;;;;;;31.50;5.25;;;6.30;99.90;;;;;;5079521;27;20097;-84
2022/01/17 05:29:29;;;;;;;32.53;5.85;;;6.30;99.90;;;;;;5093809;28;20130;-81
2022/01/17 05:31:54;;;;;;;31.80;5.18;;;6.30;99.90;;;;;;5053998;28;20118;-81
2022/01/17 05:34:20;;;;;;;28.67;5.13;;;6.30;99.90;;;;;;5095245;27;20043;-81
2022/01/17 05:36:46;;;;;;;33.47;4.93;;;6.30;99.90;;;;;;5077685;28;20146;-81
2022/01/17 05:39:11;;;;;;;35.53;6.05;;;6.20;99.90;;;;;;5093852;27;20047;-87
2022/01/17 05:41:37;;;;;;;29.65;5.82;;;6.30;99.90;;;;;;5062224;28;20043;-80
2022/01/17 05:44:03;;;;;;;42.88;5.57;;;6.30;99.90;;;;;;5057689;27;20056;-81
2022/01/17 05:46:28;;;;;;;38.83;4.68;;;6.30;99.90;;;;;;5069324;28;20890;-80
2022/01/17 05:48:54;;;;;;;29.13;4.65;;;6.30;99.90;;;;;;5079673;28;20452;-79
2022/01/17 05:51:20;;;;;;;36.88;5.30;;;6.30;99.90;;;;;;5116312;27;20053;-80
2022/01/17 05:53:45;;;;;;;29.55;4.97;;;6.40;99.90;;;;;;5087901;27;20069;-81
2022/01/17 05:56:11;;;;;;;32.35;4.75;;;6.30;99.90;;;;;;5110651;28;20381;-81
2022/01/17 05:58:37;;;;;;;38.45;5.45;;;6.30;99.90;;;;;;5077198;27;20043;-83
2022/01/17 06:01:03;;;;;;;36.55;5.63;;;6.30;99.90;;;;;;5107078;28;20050;-80
2022/01/17 06:03:28;;;;;;;34.20;5.60;;;6.30;99.90;;;;;;5074678;27;20495;-83
2022/01/17 06:05:54;;;;;;;35.42;5.20;;;6.30;99.90;;;;;;5131302;27;20086;-82
2022/01/17 06:08:20;;;;;;;37.55;5.90;;;6.30;99.90;;;;;;5086797;27;20032;-81
2022/01/17 06:10:45;;;;;;;31.75;5.20;;;6.40;99.90;;;;;;5068065;28;20047;-83
2022/01/17 06:13:11;;;;;;;27.55;5.38;;;6.30;99.90;;;;;;5085922;28;20053;-84
2022/01/17 06:15:37;;;;;;;43.03;6.50;;;6.30;99.90;;;;;;5125051;27;20114;-82
2022/01/17 06:18:03;;;;;;;44.95;6.60;;;6.30;99.90;;;;;;5095641;27;20552;-81
2022/01/17 06:20:28;;;;;;;40.20;6.00;;;6.30;99.90;;;;;;5122398;27;20105;-81
2022/01/17 06:22:54;;;;;;;38.47;5.60;;;6.40;99.90;;;;;;5099123;28;20127;-82
2022/01/17 06:25:20;;;;;;;47.58;6.43;;;6.40;99.90;;;;;;5108620;27;20039;-82
2022/01/17 06:27:46;;;;;;;30.10;5.53;;;6.40;99.90;;;;;;5106005;27;20047;-81
2022/01/17 06:30:13;;;;;;;49.20;6.75;;;6.30;99.90;;;;;;5117515;27;20447;-82
2022/01/17 06:32:40;;;;;;;39.45;5.00;;;6.40;99.90;;;;;;5109496;27;20084;-81
2022/01/17 06:35:06;;;;;;;49.17;6.70;;;6.50;99.90;;;;;;5101099;27;20039;-81
2022/01/17 06:37:31;;;;;;;35.95;6.85;;;6.40;99.90;;;;;;5113653;27;20042;-80
2022/01/17 06:39:57;;;;;;;47.92;7.03;;;6.50;99.90;;;;;;5101696;27;20050;-81
2022/01/17 06:42:23;;;;;;;49.53;6.60;;;6.50;99.90;;;;;;5092524;28;20054;-80
2022/01/17 06:44:50;;;;;;;38.72;6.70;;;6.50;99.90;;;;;;5132960;27;20505;-81
2022/01/17 06:47:16;;;;;;;40.90;4.82;;;6.50;99.90;;;;;;5088453;27;20058;-81
2022/01/17 06:49:42;;;;;;;46.72;7.50;;;6.60;99.90;;;;;;5129664;27;20062;-80
2022/01/17 06:52:07;;;;;;;36.90;5.93;;;6.50;99.90;;;;;;5118743;27;20038;-82
2022/01/17 06:54:33;;;;;;;54.50;7.80;;;6.60;99.90;;;;;;5110758;27;20040;-82
2022/01/17 06:56:59;;;;;;;35.38;5.28;;;6.70;99.90;;;;;;5115489;28;20131;-81
2022/01/17 06:59:24;;;;;;;45.08;6.20;;;6.70;99.90;;;;;;5077892;27;20043;-81
2022/01/17 07:01:50;;;;;;;38.90;6.70;;;6.70;99.90;;;;;;5114155;27;20043;-80
2022/01/17 07:04:16;;;;;;;38.88;7.28;;;6.80;99.90;;;;;;5089251;28;20087;-80
2022/01/17 07:06:42;;;;;;;43.40;5.57;;;6.80;99.90;;;;;;5102034;27;20174;-79
2022/01/17 07:09:15;;;;;;;53.75;7.22;;;6.80;99.90;;;;;;5116872;27;20483;-79
2022/01/17 07:11:41;;;;;;;40.35;5.68;;;6.80;99.90;;;;;;5113036;27;20082;-82
2022/01/17 07:14:11;;;;;;;45.83;6.75;;;6.80;99.90;;;;;;5114883;27;20091;-81
2022/01/17 07:16:39;;;;;;;45.92;5.80;;;6.90;99.90;;;;;;5111301;27;20827;-82
2022/01/17 07:19:05;;;;;;;36.83;6.95;;;6.90;99.90;;;;;;5101498;28;20047;-80
2022/01/17 07:21:31;;;;;;;47.58;6.70;;;7.00;99.90;;;;;;5109463;27;20043;-79
2022/01/17 07:23:57;;;;;;;42.13;6.32;;;6.90;99.90;;;;;;5117544;27;20043;-80
2022/01/17 07:26:23;;;;;;;55.00;6.07;;;7.00;99.90;;;;;;5085530;28;20514;-81
2022/01/17 07:28:49;;;;;;;55.33;6.80;;;7.00;99.90;;;;;;5128518;27;20047;-81
2022/01/17 07:31:18;;;;;;;40.80;6.57;;;7.10;99.90;;;;;;5102918;27;20054;-82
2022/01/17 07:33:44;;;;;;;46.63;5.93;;;7.10;99.90;;;;;;5101479;27;20038;-82
2022/01/17 07:36:13;;;;;;;40.33;5.00;;;7.10;99.90;;;;;;5116940;27;20062;-81
2022/01/17 07:38:39;;;;;;;39.72;6.10;;;7.00;99.90;;;;;;5088228;27;20055;-79
2022/01/17 07:41:04;;;;;;;42.13;5.80;;;7.00;99.90;;;;;;5104337;27;20043;-80
2022/01/17 07:43:30;;;;;;;36.15;5.13;;;7.20;99.90;;;;;;5116055;27;20043;-80
2022/01/17 07:46:05;;;;;;;36.28;5.38;;;7.20;99.90;;;;;;5091349;27;20039;-86
2022/01/17 07:51:16;;;;;;;41.05;6.20;;;7.30;99.90;;;;;;5110379;27;20049;-81
2022/01/17 07:53:42;;;;;;;51.35;7.57;;;7.20;99.90;;;;;;5089211;27;20043;-80
2022/01/17 07:56:08;;;;;;;37.17;5.00;;;7.30;99.90;;;;;;5105068;27;20073;-80
2022/01/17 07:58:33;;;;;;;33.88;5.07;;;7.30;99.90;;;;;;5107109;27;20124;-80
2022/01/17 08:00:59;;;;;;;45.75;6.32;;;7.30;99.90;;;;;;5138937;27;20074;-81
2022/01/17 08:03:25;;;;;;;31.55;7.82;;;7.40;99.90;;;;;;5113558;27;20558;-83
2022/01/17 08:05:50;;;;;;;27.30;4.93;;;7.40;99.90;;;;;;5138824;27;20542;-78
2022/01/17 08:08:16;;;;;;;39.85;6.57;;;7.40;99.90;;;;;;5101589;27;20046;-78
2022/01/17 08:10:42;;;;;;;37.75;6.55;;;7.50;99.90;;;;;;5081588;27;20427;-82
2022/01/17 08:13:09;;;;;;;38.20;5.40;;;7.50;99.90;;;;;;5137916;27;20110;-82
2022/01/17 08:15:37;;;;;;;37.70;5.13;;;7.50;99.90;;;;;;5099968;27;20047;-88
2022/01/17 08:18:03;;;;;;;40.13;6.18;;;7.50;99.90;;;;;;5136625;27;20046;-82
2022/01/17 08:20:30;;;;;;;42.60;6.53;;;7.60;99.90;;;;;;5094832;27;20496;-80
2022/01/17 08:22:57;;;;;;;42.13;6.55;;;7.60;99.90;;;;;;5120516;27;20043;-85
2022/01/17 08:25:24;;;;;;;37.65;7.10;;;7.60;99.90;;;;;;5111732;27;20044;-87
2022/01/17 08:27:49;;;;;;;46.88;6.93;;;7.60;99.90;;;;;;5111927;27;20360;-84
2022/01/17 08:30:15;;;;;;;48.97;6.18;;;7.60;99.90;;;;;;5099055;27;20057;-80
2022/01/17 08:32:41;;;;;;;38.05;6.78;;;7.60;99.90;;;;;;5138104;27;20129;-81
2022/01/17 08:35:08;;;;;;;39.67;6.70;;;7.60;99.90;;;;;;5118773;27;20567;-83
2022/01/17 08:37:34;;;;;;;36.70;5.57;;;7.70;99.90;;;;;;5091697;27;20483;-81
2022/01/17 08:40:01;;;;;;;48.00;6.75;;;7.70;99.90;;;;;;5102939;27;20049;-80
2022/01/17 08:42:27;;;;;;;51.30;7.75;;;7.70;99.90;;;;;;5133573;27;20071;-78
2022/01/17 08:44:56;;;;;;;41.45;6.22;;;7.80;99.90;;;;;;5111961;27;20051;-79
2022/01/17 08:47:23;;;;;;;45.85;7.20;;;7.70;99.90;;;;;;5134037;27;20035;-79
2022/01/17 08:49:50;;;;;;;39.40;5.95;;;7.80;99.90;;;;;;5120955;27;20051;-80
2022/01/17 08:52:17;;;;;;;43.05;6.72;;;7.70;99.90;;;;;;5116695;27;20050;-83
2022/01/17 08:54:43;;;;;;;48.97;7.38;;;7.80;99.90;;;;;;5122647;27;20051;-81
2022/01/17 08:57:11;;;;;;;35.55;6.03;;;7.80;99.90;;;;;;5090846;27;20059;-80
2022/01/17 08:59:37;;;;;;;42.63;6.70;;;7.90;99.90;;;;;;5105086;27;20049;-80
2022/01/17 09:02:04;;;;;;;44.38;7.05;;;7.80;99.90;;;;;;5100272;27;20085;-79
2022/01/17 09:04:29;;;;;;;39.67;5.60;;;7.80;99.90;;;;;;5117575;27;20090;-81
2022/01/17 09:06:55;;;;;;;44.00;5.88;;;7.80;99.90;;;;;;5098036;27;20460;-78
2022/01/17 09:09:21;;;;;;;41.33;6.40;;;7.90;99.90;;;;;;5135398;27;20154;-78
2022/01/17 09:11:46;;;;;;;44.28;6.18;;;8.00;99.90;;;;;;5122718;27;20043;-82
2022/01/17 09:14:12;;;;;;;52.00;7.32;;;7.90;99.90;;;;;;5129656;27;20491;-80
2022/01/17 09:16:38;;;;;;;39.35;5.70;;;7.90;99.90;;;;;;5102224;27;20103;-82
2022/01/17 09:19:05;;;;;;;49.25;7.53;;;8.00;99.90;;;;;;5110947;27;20125;-83
2022/01/17 09:21:31;;;;;;;48.58;7.05;;;8.00;99.90;;;;;;5117756;27;20038;-83
2022/01/17 09:23:58;;;;;;;44.45;6.95;;;8.00;99.90;;;;;;5099246;27;20047;-81
2022/01/17 09:26:26;;;;;;;42.33;7.93;;;8.10;99.90;;;;;;5092128;27;20491;-80
2022/01/17 09:28:52;;;;;;;46.78;6.38;;;8.10;99.90;;;;;;5135362;27;20103;-80
2022/01/17 09:31:18;;;;;;;54.55;6.53;;;8.10;99.90;;;;;;5118269;27;20043;-78
2022/01/17 09:33:44;;;;;;;40.95;6.15;;;8.20;99.90;;;;;;5119747;27;20047;-79
2022/01/17 09:36:10;;;;;;;42.60;6.70;;;8.20;99.90;;;;;;5136728;27;20500;-78
2022/01/17 09:38:35;;;;;;;42.00;5.97;;;8.20;99.90;;;;;;5137458;27;20082;-79
2022/01/17 09:41:02;;;;;;;55.70;7.75;;;8.20;99.90;;;;;;5116646;27;20039;-81
2022/01/17 09:43:28;;;;;;;43.58;7.80;;;8.20;99.90;;;;;;5099577;27;20035;-85
2022/01/17 09:45:55;;;;;;;41.90;6.57;;;8.30;99.90;;;;;;5097596;27;20546;-80
2022/01/17 09:48:23;;;;;;;47.67;7.72;;;8.30;99.90;;;;;;5119975;27;20069;-81
2022/01/17 09:51:15;;;;;;;44.50;6.88;;;8.40;99.90;;;;;;5103213;27;20043;-82
2022/01/17 09:53:39;;;;;;;51.95;6.75;;;8.40;99.90;;;;;;5121601;27;20039;-82
2022/01/17 09:56:07;;;;;;;63.20;10.18;;;8.30;99.90;;;;;;5102645;27;20059;-80
2022/01/17 09:58:37;;;;;;;44.88;7.10;;;8.40;99.90;;;;;;5105941;27;20137;-86
2022/01/17 10:01:04;;;;;;;40.70;6.65;;;8.40;99.90;;;;;;5103091;27;20048;-80
2022/01/17 10:03:32;;;;;;;45.75;7.20;;;8.30;99.90;;;;;;5116248;27;20112;-78
2022/01/17 10:05:57;;;;;;;47.38;6.70;;;8.40;99.90;;;;;;5116786;27;20062;-79
2022/01/17 10:08:24;;;;;;;41.78;7.13;;;8.40;99.90;;;;;;5096018;27;20479;-79
2022/01/17 10:10:58;;;;;;;50.42;7.60;;;8.50;99.90;;;;;;5086929;27;20049;-78
2022/01/17 10:13:27;;;;;;;54.97;7.88;;;8.40;99.90;;;;;;5099603;27;20051;-78
2022/01/17 10:16:06;;;;;;;46.85;7.45;;;8.40;99.90;;;;;;5116081;27;20130;-77
2022/01/17 10:18:38;;;;;;;46.47;7.18;;;8.40;99.90;;;;;;5129453;27;20049;-79
2022/01/17 10:21:14;;;;;;;49.25;8.32;;;8.40;99.90;;;;;;5132868;27;20041;-82
2022/01/17 10:26:16;;;;;;;42.55;7.45;;;8.50;99.90;;;;;;5111659;27;20047;-81
2022/01/17 10:36:56;;;;;;;46.95;7.95;;;8.60;99.90;;;;;;5111003;27;20059;-82
2022/01/17 10:39:22;;;;;;;40.33;7.60;;;8.70;99.90;;;;;;5080731;27;20043;-81
2022/01/17 10:41:49;;;;;;;44.60;6.88;;;8.80;99.90;;;;;;5103074;27;20061;-79
2022/01/17 10:44:37;;;;;;;45.80;7.20;;;8.70;99.90;;;;;;5097453;28;20493;-79
2022/01/17 10:47:25;;;;;;;58.15;8.80;;;8.70;99.90;;;;;;5115568;27;20076;-80
2022/01/17 10:49:55;;;;;;;54.33;8.13;;;8.70;99.90;;;;;;5114827;27;20031;-79
2022/01/17 10:52:50;;;;;;;56.00;8.05;;;8.70;99.90;;;;;;5117116;27;20043;-78
2022/01/17 10:55:30;;;;;;;52.17;11.48;;;8.70;99.90;;;;;;5126087;27;20130;-80
2022/01/17 10:58:02;;;;;;;57.03;9.13;;;8.70;99.90;;;;;;5117532;28;20059;-83
2022/01/17 11:00:31;;;;;;;44.28;7.45;;;8.80;99.90;;;;;;5128852;27;20086;-83
2022/01/17 11:03:03;;;;;;;67.57;10.25;;;8.80;99.90;;;;;;5120435;27;20138;-81
2022/01/17 11:05:32;;;;;;;61.22;9.25;;;8.90;99.90;;;;;;5117842;27;20081;-83
2022/01/17 11:08:01;;;;;;;58.17;8.43;;;8.90;99.90;;;;;;5116005;27;20038;-84
2022/01/17 11:10:31;;;;;;;71.85;10.00;;;8.90;99.90;;;;;;5116930;27;20073;-82
2022/01/17 11:13:02;;;;;;;63.97;10.07;;;9.00;99.90;;;;;;5134915;27;20133;-81
2022/01/17 11:15:32;;;;;;;51.22;9.48;;;9.10;99.90;;;;;;5127716;27;20092;-81
2022/01/17 11:18:03;;;;;;;49.65;9.45;;;9.10;99.90;;;;;;5105594;27;20447;-80
2022/01/17 11:20:29;;;;;;;60.47;8.55;;;9.10;99.90;;;;;;5102385;27;20050;-82
2022/01/17 11:22:59;;;;;;;59.53;9.35;;;9.20;99.90;;;;;;5102139;27;20043;-81
2022/01/17 11:25:45;;;;;;;60.38;9.65;;;9.30;99.90;;;;;;5124243;27;20034;-80
2022/01/17 11:28:14;;;;;;;58.30;9.45;;;9.50;99.90;;;;;;5132400;27;20043;-79
2022/01/17 11:30:40;;;;;;;57.67;9.38;;;9.70;99.90;;;;;;5106151;27;20099;-79
2022/01/17 11:33:09;;;;;;;63.28;9.57;;;9.80;99.90;;;;;;5106090;27;20053;-80
2022/01/17 11:35:40;;;;;;;53.53;8.27;;;9.90;99.90;;;;;;5108698;27;20042;-79
2022/01/17 11:38:14;;;;;;;52.38;9.40;;;10.00;99.90;;;;;;5119960;27;20034;-79
2022/01/17 11:40:42;;;;;;;56.08;10.43;;;10.10;99.90;;;;;;5119871;27;20039;-79
2022/01/17 11:43:23;;;;;;;60.58;10.77;;;10.10;99.90;;;;;;5126174;27;20070;-78
2022/01/17 11:45:53;;;;;;;52.10;9.00;;;10.20;99.90;;;;;;5121526;27;20513;-81
2022/01/17 11:48:25;;;;;;;54.88;7.75;;;10.20;99.90;;;;;;5088666;27;20039;-82
2022/01/17 11:50:53;;;;;;;51.47;9.15;;;10.00;99.90;;;;;;5101483;27;20484;-81
2022/01/17 11:53:18;;;;;;;51.80;8.85;;;9.90;99.90;;;;;;5106270;27;20050;-81
2022/01/17 11:55:46;;;;;;;57.63;8.60;;;9.90;99.90;;;;;;5138901;27;20054;-81
2022/01/17 11:58:19;;;;;;;46.42;8.43;;;10.20;99.90;;;;;;5102833;27;20058;-79
2022/01/17 12:00:46;;;;;;;64.38;11.00;;;10.30;99.90;;;;;;5117832;27;20481;-80
2022/01/17 12:03:20;;;;;;;48.85;8.82;;;10.20;99.90;;;;;;5105174;27;20537;-82
2022/01/17 12:05:47;;;;;;;50.58;8.35;;;10.00;99.90;;;;;;5138060;27;20035;-88
2022/01/17 12:08:24;;;;;;;55.72;9.80;;;9.80;99.90;;;;;;5103058;27;20042;-82
2022/01/17 12:10:53;;;;;;;56.35;10.23;;;10.00;99.90;;;;;;5117928;27;20043;-83
2022/01/17 12:13:23;;;;;;;57.63;10.93;;;10.10;99.90;;;;;;5119763;27;20399;-80
2022/01/17 12:15:57;;;;;;;62.28;10.55;;;10.30;99.90;;;;;;5137102;27;20183;-80
2022/01/17 12:18:28;;;;;;;57.63;10.98;;;10.40;99.90;;;;;;5138887;27;20488;-80
2022/01/17 12:20:54;;;;;;;54.00;9.32;;;10.30;99.90;;;;;;5119965;27;20055;-79
2022/01/17 12:23:26;;;;;;;49.85;8.15;;;10.30;99.90;;;;;;5116706;28;20042;-79
2022/01/17 12:25:55;;;;;;;46.05;8.85;;;10.30;99.90;;;;;;5122711;27;20143;-81
2022/01/17 12:28:24;;;;;;;51.45;9.23;;;10.30;99.90;;;;;;5119926;27;20384;-81
2022/01/17 12:30:57;;;;;;;49.38;8.27;;;10.30;99.90;;;;;;5109554;27;20045;-88
2022/01/17 12:33:37;;;;;;;55.50;9.10;;;10.20;99.90;;;;;;5117299;27;20551;-80
2022/01/17 12:36:24;;;;;;;52.65;9.18;;;10.10;99.90;;;;;;5131894;27;20066;-80
2022/01/17 12:38:51;;;;;;;70.65;12.05;;;10.00;99.90;;;;;;5120935;27;20121;-80
2022/01/17 12:41:34;;;;;;;65.00;10.75;;;9.80;99.90;;;;;;5121067;27;20042;-79
2022/01/17 12:44:15;;;;;;;58.92;9.25;;;9.70;99.90;;;;;;5099736;27;20038;-79
2022/01/17 12:46:43;;;;;;;51.33;9.50;;;9.60;99.90;;;;;;5103977;27;20086;-79
2022/01/17 12:49:09;;;;;;;64.25;11.35;;;9.60;99.90;;;;;;5105796;27;20050;-78
2022/01/17 12:51:40;;;;;;;74.72;12.65;;;9.60;99.90;;;;;;5120885;27;20455;-84
2022/01/17 12:54:11;;;;;;;71.57;11.75;;;9.80;99.90;;;;;;5111617;27;20161;-85
2022/01/17 12:56:41;;;;;;;71.43;10.95;;;9.90;99.90;;;;;;5119160;27;20062;-83
2022/01/17 12:59:09;;;;;;;48.25;8.85;;;10.00;99.90;;;;;;5135465;27;20067;-80
2022/01/17 13:01:35;;;;;;;58.08;10.55;;;10.00;99.90;;;;;;5116579;27;20050;-80
2022/01/17 13:04:04;;;;;;;59.15;10.00;;;10.00;99.90;;;;;;5105598;27;20043;-81
2022/01/17 13:06:31;;;;;;;56.22;9.57;;;9.90;99.90;;;;;;5118542;27;20035;-81
2022/01/17 13:08:59;;;;;;;51.38;9.05;;;9.80;99.90;;;;;;5079882;27;20035;-80
2022/01/17 13:11:25;;;;;;;50.67;8.60;;;9.50;99.90;;;;;;5136691;27;20506;-79
2022/01/17 13:13:58;;;;;;;61.92;10.82;;;9.50;99.90;;;;;;5083073;27;20393;-82
2022/01/17 13:16:25;;;;;;;63.30;9.55;;;9.40;99.90;;;;;;5114888;27;20058;-83